JBU829 MSLP-TJBQ
Flight info
| Callsign | JBU829 |
|---|---|
| Flight time | N/A |
| Altitude | 37000 |
| Route | NAGEL2E NAGEL UH225 SAP UR644 CISNE UL349 APLED UM596 ETBOD UL577 ANTEX |
| Aircraft | A320/M-SDE3FGHIRWY/LB1 |
Departure
| Time | 2026-04-15 17:47 |
|---|---|
| Airport | El Salvador International Airport Saint Óscar Arnulfo Romero y Galdámez (MSLP) |
Arrival
| Time | N/A |
|---|---|
| Airport | Rafael Hernández International Airport (TJBQ) |
| Time | Latitude | Longitude | Altitude | Speed | Heading |
|---|---|---|---|---|---|
| 2026-04-15 17:24 | 13.44376 | -89.05803 | 93 ft | 0 kts | 341° |
| 2026-04-15 17:39 | 13.44375 | -89.05803 | 93 ft | 1 kts | 341° |
| 2026-04-15 17:39 | 13.44353 | -89.05795 | 92 ft | 4 kts | 329° |
| 2026-04-15 17:40 | 13.44335 | -89.05777 | 94 ft | 4 kts | 289° |
| 2026-04-15 17:40 | 13.44332 | -89.05760 | 93 ft | 1 kts | 270° |
| 2026-04-15 17:40 | 13.44332 | -89.05757 | 93 ft | 0 kts | 270° |
| 2026-04-15 17:42 | 13.44330 | -89.05765 | 93 ft | 4 kts | 256° |
| 2026-04-15 17:42 | 13.44301 | -89.05804 | 93 ft | 9 kts | 233° |
| 2026-04-15 17:43 | 13.44262 | -89.05864 | 93 ft | 11 kts | 245° |
| 2026-04-15 17:43 | 13.44208 | -89.05912 | 91 ft | 12 kts | 176° |
| 2026-04-15 17:43 | 13.44142 | -89.05963 | 91 ft | 15 kts | 249° |
| 2026-04-15 17:43 | 13.44104 | -89.06073 | 91 ft | 18 kts | 248° |
| 2026-04-15 17:44 | 13.44056 | -89.06200 | 91 ft | 20 kts | 250° |
| 2026-04-15 17:44 | 13.44009 | -89.06338 | 88 ft | 21 kts | 249° |
| 2026-04-15 17:44 | 13.43955 | -89.06492 | 85 ft | 24 kts | 250° |
| 2026-04-15 17:44 | 13.43894 | -89.06662 | 86 ft | 25 kts | 250° |
| 2026-04-15 17:45 | 13.43833 | -89.06836 | 84 ft | 26 kts | 250° |
| 2026-04-15 17:45 | 13.43779 | -89.06979 | 81 ft | 14 kts | 233° |
| 2026-04-15 17:45 | 13.43683 | -89.06984 | 79 ft | 16 kts | 152° |
| 2026-04-15 17:45 | 13.43614 | -89.06930 | 75 ft | 10 kts | 105° |
| 2026-04-15 17:46 | 13.43626 | -89.06885 | 84 ft | 7 kts | 69° |
| 2026-04-15 17:46 | 13.43721 | -89.06622 | 83 ft | 74 kts | 70° |
| 2026-04-15 17:46 | 13.43966 | -89.05938 | 89 ft | 128 kts | 70° |
| 2026-04-15 17:46 | 13.44327 | -89.04931 | 121 ft | 168 kts | 69° |
| 2026-04-15 17:47 | 13.44730 | -89.03756 | 525 ft | 180 kts | 69° |
| 2026-04-15 17:47 | 13.45147 | -89.02553 | 1188 ft | 177 kts | 69° |
| 2026-04-15 17:47 | 13.45580 | -89.01351 | 1603 ft | 189 kts | 70° |
| 2026-04-15 17:47 | 13.46063 | -89.00011 | 1814 ft | 211 kts | 70° |
| 2026-04-15 17:48 | 13.46596 | -88.98530 | 2100 ft | 233 kts | 70° |
| 2026-04-15 17:48 | 13.47185 | -88.96888 | 2449 ft | 255 kts | 70° |
| 2026-04-15 17:48 | 13.47812 | -88.95141 | 3087 ft | 264 kts | 69° |
| 2026-04-15 17:48 | 13.48448 | -88.93359 | 3944 ft | 266 kts | 69° |
| 2026-04-15 17:49 | 13.49090 | -88.91562 | 4791 ft | 269 kts | 69° |
| 2026-04-15 17:49 | 13.49696 | -88.89734 | 5605 ft | 273 kts | 72° |
| 2026-04-15 17:49 | 13.50135 | -88.87824 | 6430 ft | 276 kts | 76° |
| 2026-04-15 17:49 | 13.50555 | -88.85890 | 7154 ft | 280 kts | 74° |
| 2026-04-15 17:50 | 13.51223 | -88.84027 | 7879 ft | 283 kts | 61° |
| 2026-04-15 17:50 | 13.52292 | -88.82322 | 8608 ft | 286 kts | 50° |
| 2026-04-15 17:50 | 13.53707 | -88.80867 | 9324 ft | 289 kts | 37° |
| 2026-04-15 17:50 | 13.55409 | -88.79742 | 10007 ft | 293 kts | 25° |
| 2026-04-15 17:51 | 13.57328 | -88.79013 | 10655 ft | 297 kts | 15° |
| 2026-04-15 17:51 | 13.59392 | -88.78421 | 10893 ft | 318 kts | 16° |
| 2026-04-15 17:51 | 13.61599 | -88.77790 | 11029 ft | 340 kts | 16° |
| 2026-04-15 17:51 | 13.63932 | -88.77120 | 11366 ft | 353 kts | 16° |
| 2026-04-15 17:52 | 13.66323 | -88.76432 | 11921 ft | 358 kts | 17° |
| 2026-04-15 17:52 | 13.68739 | -88.75736 | 12498 ft | 362 kts | 17° |
| 2026-04-15 17:52 | 13.71147 | -88.75043 | 13078 ft | 365 kts | 17° |
| 2026-04-15 17:52 | 13.73611 | -88.74331 | 13658 ft | 369 kts | 18° |
| 2026-04-15 17:53 | 13.76096 | -88.73612 | 14178 ft | 372 kts | 17° |
| 2026-04-15 17:53 | 13.78593 | -88.72888 | 14670 ft | 375 kts | 17° |
| 2026-04-15 17:53 | 13.81124 | -88.72153 | 15167 ft | 378 kts | 17° |
| 2026-04-15 17:53 | 13.83662 | -88.71415 | 15652 ft | 381 kts | 17° |
| 2026-04-15 17:54 | 13.86230 | -88.70668 | 16136 ft | 384 kts | 17° |
| 2026-04-15 17:54 | 13.88784 | -88.69925 | 16601 ft | 387 kts | 17° |
| 2026-04-15 17:54 | 13.91387 | -88.69169 | 17076 ft | 389 kts | 17° |
| 2026-04-15 17:54 | 13.94004 | -88.68409 | 17540 ft | 393 kts | 17° |
| 2026-04-15 17:55 | 13.96654 | -88.67656 | 18020 ft | 396 kts | 16° |
| 2026-04-15 17:55 | 13.99349 | -88.66972 | 18482 ft | 399 kts | 14° |
| 2026-04-15 17:55 | 14.02035 | -88.66352 | 18929 ft | 401 kts | 13° |
| 2026-04-15 17:55 | 14.04779 | -88.65747 | 19381 ft | 403 kts | 13° |
| 2026-04-15 17:56 | 14.07522 | -88.65145 | 19851 ft | 405 kts | 13° |
| 2026-04-15 17:56 | 14.10287 | -88.64530 | 20327 ft | 407 kts | 13° |
| 2026-04-15 17:56 | 14.13049 | -88.63901 | 20804 ft | 408 kts | 13° |
| 2026-04-15 17:56 | 14.15830 | -88.63252 | 21255 ft | 410 kts | 13° |
| 2026-04-15 17:57 | 14.18628 | -88.62590 | 21711 ft | 412 kts | 13° |
| 2026-04-15 17:57 | 14.21434 | -88.61925 | 22160 ft | 414 kts | 13° |
| 2026-04-15 17:57 | 14.24205 | -88.61264 | 22567 ft | 416 kts | 14° |
| 2026-04-15 17:57 | 14.26981 | -88.60272 | 22979 ft | 418 kts | 24° |
| 2026-04-15 17:58 | 14.29532 | -88.58883 | 23393 ft | 420 kts | 28° |
| 2026-04-15 17:58 | 14.32086 | -88.57422 | 23767 ft | 422 kts | 28° |
| 2026-04-15 17:58 | 14.34673 | -88.55944 | 24077 ft | 424 kts | 28° |
| 2026-04-15 17:58 | 14.37259 | -88.54469 | 24400 ft | 426 kts | 28° |
| 2026-04-15 17:59 | 14.39865 | -88.52980 | 24716 ft | 428 kts | 27° |
| 2026-04-15 17:59 | 14.42468 | -88.51490 | 25039 ft | 430 kts | 27° |
| 2026-04-15 17:59 | 14.45097 | -88.49983 | 25355 ft | 432 kts | 27° |
| 2026-04-15 17:59 | 14.47736 | -88.48471 | 25666 ft | 434 kts | 27° |
| 2026-04-15 18:00 | 14.50397 | -88.46949 | 25967 ft | 436 kts | 27° |
| 2026-04-15 18:00 | 14.53023 | -88.45448 | 26258 ft | 438 kts | 27° |